Time;durP1;ratioP1;P1;durP2;ratioP2;P2;SDS_P1;SDS_P2;PMS_P1;PMS_P2;Temp;Humidity;BMP_temperature;BMP_pressure;BME280_temperature;BME280_humidity;BME280_pressure;Samples;Min_cycle;Max_cycle;Signal;HPM_P1;HPM_P2
2023/04/11 00:00:56;;;;;;;35.40;16.20;;;;;;;;;;108456;1249;22863;-80
2023/04/11 00:03:22;;;;;;;33.90;17.20;;;;;;;;;;107724;1250;22707;-79
2023/04/11 00:05:48;;;;;;;30.30;15.50;;;;;;;;;;107700;1250;25473;-80
2023/04/11 00:08:15;;;;;;;30.60;15.50;;;;;;;;;;107668;1249;26341;-79
2023/04/11 00:10:41;;;;;;;25.40;15.40;;;;;;;;;;107619;1252;25497;-79
2023/04/11 00:13:09;;;;;;;29.40;14.50;;;;;;;;;;107626;1249;23252;-79
2023/04/11 00:15:38;;;;;;;35.00;17.10;;;;;;;;;;107626;1249;22629;-79
2023/04/11 00:18:05;;;;;;;37.70;21.00;;;;;;;;;;107601;1249;22673;-78
2023/04/11 00:20:31;;;;;;;50.00;28.80;;;;;;;;;;110972;1248;22856;-79
2023/04/11 00:22:58;;;;;;;43.20;22.10;;;;;;;;;;110871;1249;22580;-81
2023/04/11 00:25:25;;;;;;;50.50;29.90;;;;;;;;;;107596;1248;25390;-79
2023/04/11 00:27:52;;;;;;;31.60;17.30;;;;;;;;;;107628;1252;25197;-80
2023/04/11 00:30:19;;;;;;;37.70;17.30;;;;;;;;;;107664;1252;25484;-80
2023/04/11 00:32:46;;;;;;;38.40;20.70;;;;;;;;;;107660;1250;25349;-79
2023/04/11 00:35:12;;;;;;;34.30;18.50;;;;;;;;;;107665;1252;25265;-79
2023/04/11 00:37:42;;;;;;;39.10;20.40;;;;;;;;;;107658;1250;22611;-79
2023/04/11 00:40:11;;;;;;;35.80;20.10;;;;;;;;;;107677;1250;22522;-79
2023/04/11 00:42:37;;;;;;;36.40;20.20;;;;;;;;;;110972;1248;22532;-81
2023/04/11 00:45:04;;;;;;;29.20;16.90;;;;;;;;;;111050;1248;22838;-80
2023/04/11 00:47:31;;;;;;;34.80;21.40;;;;;;;;;;109087;1250;22636;-79
2023/04/11 00:49:57;;;;;;;37.60;22.90;;;;;;;;;;110078;1250;23578;-80
2023/04/11 00:52:24;;;;;;;41.40;20.10;;;;;;;;;;107669;1248;25384;-80
2023/04/11 00:54:50;;;;;;;29.70;16.00;;;;;;;;;;107638;1250;22518;-79
2023/04/11 00:57:16;;;;;;;30.90;16.00;;;;;;;;;;107647;1250;22553;-79
2023/04/11 00:59:43;;;;;;;41.40;21.30;;;;;;;;;;107674;1252;25276;-80
2023/04/11 01:02:09;;;;;;;30.40;18.60;;;;;;;;;;107643;1250;22575;-80
2023/04/11 01:04:36;;;;;;;32.40;18.00;;;;;;;;;;107839;1248;22521;-79
2023/04/11 01:07:04;;;;;;;28.60;14.80;;;;;;;;;;107801;1247;25384;-80
2023/04/11 01:09:31;;;;;;;20.50;12.80;;;;;;;;;;111088;1247;23033;-79
2023/04/11 01:11:58;;;;;;;41.00;24.80;;;;;;;;;;109199;1254;26567;-80
2023/04/11 01:14:24;;;;;;;42.30;28.10;;;;;;;;;;108142;1251;25205;-80
2023/04/11 01:16:51;;;;;;;25.90;15.30;;;;;;;;;;108124;1254;22532;-80
2023/04/11 01:19:18;;;;;;;45.20;20.20;;;;;;;;;;107870;1247;23911;-80
2023/04/11 01:21:45;;;;;;;30.60;17.20;;;;;;;;;;107632;1247;22733;-80
2023/04/11 01:24:11;;;;;;;31.70;19.50;;;;;;;;;;107831;1248;24270;-80
2023/04/11 01:26:37;;;;;;;36.90;22.30;;;;;;;;;;107600;1247;24177;-80
2023/04/11 01:29:03;;;;;;;22.60;14.60;;;;;;;;;;109610;1248;22172;-81
2023/04/11 01:31:31;;;;;;;27.90;16.10;;;;;;;;;;110905;1248;22334;-80
2023/04/11 01:33:58;;;;;;;27.40;16.30;;;;;;;;;;110920;1250;22802;-80
2023/04/11 01:36:25;;;;;;;25.00;15.50;;;;;;;;;;110939;1249;22287;-81
2023/04/11 01:38:52;;;;;;;26.60;14.20;;;;;;;;;;110957;1250;22508;-79
2023/04/11 01:41:18;;;;;;;30.00;15.50;;;;;;;;;;110989;1248;22439;-80
2023/04/11 01:43:44;;;;;;;34.00;15.20;;;;;;;;;;110920;1249;23131;-80
2023/04/11 01:46:11;;;;;;;35.00;13.30;;;;;;;;;;110955;1249;22927;-81
2023/04/11 01:48:38;;;;;;;30.60;13.60;;;;;;;;;;110975;1248;22235;-80
2023/04/11 01:51:04;;;;;;;31.50;16.60;;;;;;;;;;110940;1248;22509;-79
2023/04/11 01:53:31;;;;;;;29.50;13.90;;;;;;;;;;110928;1249;22470;-79
2023/04/11 01:55:57;;;;;;;26.20;12.00;;;;;;;;;;110946;1249;23119;-80
2023/04/11 01:58:23;;;;;;;31.60;15.60;;;;;;;;;;110710;1249;145588;-81
2023/04/11 02:00:50;;;;;;;36.40;13.60;;;;;;;;;;110894;1248;22468;-80
2023/04/11 02:03:19;;;;;;;22.10;10.30;;;;;;;;;;110976;1248;22375;-81
2023/04/11 02:05:45;;;;;;;26.90;14.50;;;;;;;;;;108242;1250;22556;-81
2023/04/11 02:08:12;;;;;;;28.60;14.50;;;;;;;;;;110945;1248;22387;-80
2023/04/11 02:10:38;;;;;;;24.10;13.60;;;;;;;;;;108834;1250;24282;-79
2023/04/11 02:13:04;;;;;;;25.50;14.80;;;;;;;;;;108222;1250;24167;-79
2023/04/11 02:15:31;;;;;;;31.80;13.70;;;;;;;;;;108107;1248;22523;-81
2023/04/11 02:17:58;;;;;;;35.20;18.70;;;;;;;;;;107752;1249;22547;-79
2023/04/11 02:20:25;;;;;;;36.60;17.10;;;;;;;;;;107680;1248;22557;-81
2023/04/11 02:22:51;;;;;;;26.60;14.00;;;;;;;;;;107672;1250;24190;-80
2023/04/11 02:25:18;;;;;;;20.40;12.20;;;;;;;;;;107853;1252;23356;-79
2023/04/11 02:27:44;;;;;;;20.00;12.40;;;;;;;;;;107625;1251;22518;-78
2023/04/11 02:30:10;;;;;;;20.60;13.50;;;;;;;;;;107698;1252;22558;-79
2023/04/11 02:32:37;;;;;;;29.20;15.00;;;;;;;;;;107643;1250;23756;-81
2023/04/11 02:35:03;;;;;;;20.00;12.40;;;;;;;;;;107659;1252;25221;-81
2023/04/11 02:37:30;;;;;;;25.70;14.40;;;;;;;;;;107866;1251;22493;-80
2023/04/11 02:39:56;;;;;;;23.40;11.60;;;;;;;;;;107752;1250;22527;-79
2023/04/11 02:42:23;;;;;;;19.80;10.10;;;;;;;;;;107665;1252;22520;-80
2023/04/11 02:44:49;;;;;;;20.30;11.00;;;;;;;;;;107639;1249;22540;-80
2023/04/11 02:47:15;;;;;;;16.50;8.70;;;;;;;;;;107629;1251;22980;-80
2023/04/11 02:49:42;;;;;;;19.40;11.90;;;;;;;;;;107656;1248;22579;-82
2023/04/11 02:52:09;;;;;;;21.60;12.40;;;;;;;;;;107646;1252;22530;-79
2023/04/11 02:54:35;;;;;;;21.40;12.20;;;;;;;;;;108178;1249;24187;-79
2023/04/11 02:57:02;;;;;;;24.60;13.40;;;;;;;;;;108038;1252;22535;-79
2023/04/11 02:59:28;;;;;;;26.00;15.50;;;;;;;;;;108069;1249;22591;-81
2023/04/11 03:01:58;;;;;;;24.40;15.00;;;;;;;;;;108097;1250;22518;-80
2023/04/11 03:04:24;;;;;;;18.00;10.40;;;;;;;;;;108092;1252;23093;-81
2023/04/11 03:06:51;;;;;;;16.70;10.30;;;;;;;;;;108105;1252;22547;-80
2023/04/11 03:09:17;;;;;;;26.90;13.40;;;;;;;;;;108072;1253;22633;-80
2023/04/11 03:11:44;;;;;;;21.00;11.00;;;;;;;;;;108097;1249;22524;-80
2023/04/11 03:14:10;;;;;;;30.40;10.30;;;;;;;;;;108123;1252;22553;-80
2023/04/11 03:16:36;;;;;;;22.40;8.90;;;;;;;;;;108098;1250;22566;-79
2023/04/11 03:19:03;;;;;;;32.50;9.50;;;;;;;;;;108119;1248;24242;-79
2023/04/11 03:21:30;;;;;;;19.30;9.20;;;;;;;;;;108127;1250;26405;-80
2023/04/11 03:23:56;;;;;;;20.30;9.90;;;;;;;;;;108108;1252;23564;-81
2023/04/11 03:26:26;;;;;;;19.90;10.80;;;;;;;;;;108118;1250;22532;-80
2023/04/11 03:28:52;;;;;;;16.90;9.60;;;;;;;;;;108122;1250;22531;-81
2023/04/11 03:31:19;;;;;;;28.30;14.50;;;;;;;;;;108076;1249;25373;-80
2023/04/11 03:33:45;;;;;;;23.10;11.40;;;;;;;;;;108047;1249;25330;-82
2023/04/11 03:36:12;;;;;;;17.80;9.40;;;;;;;;;;108114;1250;22518;-79
2023/04/11 03:38:38;;;;;;;20.50;11.60;;;;;;;;;;108086;1250;25210;-81
2023/04/11 03:41:05;;;;;;;18.30;10.90;;;;;;;;;;107595;1248;22519;-79
2023/04/11 03:43:31;;;;;;;18.80;10.20;;;;;;;;;;107546;1249;24187;-79
2023/04/11 03:45:58;;;;;;;17.80;11.10;;;;;;;;;;107582;1251;26420;-79
2023/04/11 03:48:25;;;;;;;19.20;11.40;;;;;;;;;;107620;1252;22525;-79
2023/04/11 03:50:51;;;;;;;22.80;12.50;;;;;;;;;;110492;1249;22355;-80
2023/04/11 03:53:18;;;;;;;26.90;15.70;;;;;;;;;;108671;1249;24194;-81
2023/04/11 03:55:44;;;;;;;24.10;16.70;;;;;;;;;;107813;1253;26406;-79
2023/04/11 03:58:10;;;;;;;26.70;16.00;;;;;;;;;;107573;1248;22516;-79
2023/04/11 04:00:37;;;;;;;28.60;17.20;;;;;;;;;;107582;1252;22512;-79
2023/04/11 04:03:03;;;;;;;23.40;15.80;;;;;;;;;;107769;1247;24266;-79
2023/04/11 04:05:29;;;;;;;38.40;26.10;;;;;;;;;;108285;1250;23223;-80
2023/04/11 04:07:56;;;;;;;25.60;17.10;;;;;;;;;;107868;1247;23710;-80
2023/04/11 04:10:22;;;;;;;20.40;12.20;;;;;;;;;;107817;1252;25225;-79
2023/04/11 04:12:49;;;;;;;19.80;10.50;;;;;;;;;;107738;1248;25302;-79
2023/04/11 04:15:15;;;;;;;15.50;9.40;;;;;;;;;;107540;1247;25344;-79
2023/04/11 04:17:41;;;;;;;18.40;11.20;;;;;;;;;;107768;1247;24214;-80
2023/04/11 04:20:09;;;;;;;19.60;8.40;;;;;;;;;;107828;1247;24245;-79
2023/04/11 04:22:36;;;;;;;13.00;8.00;;;;;;;;;;107812;1253;25175;-80
2023/04/11 04:25:03;;;;;;;19.80;9.50;;;;;;;;;;107780;1247;25377;-79
2023/04/11 04:27:29;;;;;;;16.90;9.40;;;;;;;;;;107807;1247;22514;-78
2023/04/11 04:29:55;;;;;;;19.40;9.90;;;;;;;;;;107533;1250;22620;-80
2023/04/11 04:32:22;;;;;;;19.00;9.90;;;;;;;;;;107571;1250;22531;-80
2023/04/11 04:34:49;;;;;;;14.60;8.40;;;;;;;;;;107573;1250;25386;-80
2023/04/11 04:37:22;;;;;;;25.10;9.40;;;;;;;;;;107786;1250;25326;-80
2023/04/11 04:39:55;;;;;;;18.00;8.50;;;;;;;;;;107604;1249;22527;-79
2023/04/11 04:42:22;;;;;;;16.60;9.60;;;;;;;;;;107745;1250;22528;-79
2023/04/11 04:44:49;;;;;;;21.90;10.10;;;;;;;;;;107575;1250;25293;-79
2023/04/11 04:47:15;;;;;;;16.10;9.10;;;;;;;;;;107576;1251;22528;-78
2023/04/11 04:49:42;;;;;;;14.90;9.30;;;;;;;;;;107585;1250;22692;-79
2023/04/11 04:52:08;;;;;;;19.90;10.30;;;;;;;;;;107574;1250;25366;-79
2023/04/11 04:54:35;;;;;;;18.80;7.50;;;;;;;;;;107545;1250;24167;-80
2023/04/11 04:57:01;;;;;;;16.60;9.50;;;;;;;;;;107490;1250;25390;-78
2023/04/11 04:59:27;;;;;;;18.30;8.60;;;;;;;;;;107532;1250;24379;-80
2023/04/11 05:01:54;;;;;;;14.60;8.20;;;;;;;;;;107582;1250;22537;-80
2023/04/11 05:04:21;;;;;;;13.20;7.60;;;;;;;;;;107592;1252;25362;-80
2023/04/11 05:06:48;;;;;;;17.40;10.50;;;;;;;;;;107619;1249;22522;-80
2023/04/11 05:09:15;;;;;;;17.30;8.80;;;;;;;;;;107576;1252;22527;-79
2023/04/11 05:11:41;;;;;;;20.70;10.80;;;;;;;;;;107665;1250;22868;-79
2023/04/11 05:14:07;;;;;;;23.70;10.40;;;;;;;;;;107546;1250;22524;-79
2023/04/11 05:16:34;;;;;;;20.20;11.00;;;;;;;;;;107626;1250;27372;-80
2023/04/11 05:19:00;;;;;;;18.50;8.40;;;;;;;;;;107564;1252;22524;-78
2023/04/11 05:21:26;;;;;;;27.90;10.90;;;;;;;;;;107630;1249;25498;-79
2023/04/11 05:23:53;;;;;;;18.80;10.00;;;;;;;;;;107584;1250;24206;-80
2023/04/11 05:26:19;;;;;;;24.20;13.10;;;;;;;;;;107620;1250;25390;-79
2023/04/11 05:28:45;;;;;;;27.30;10.80;;;;;;;;;;107577;1250;22532;-78
2023/04/11 05:31:12;;;;;;;18.70;10.70;;;;;;;;;;107670;1250;24176;-80
2023/04/11 05:33:38;;;;;;;21.20;11.30;;;;;;;;;;107550;1250;25293;-79
2023/04/11 05:36:05;;;;;;;18.30;11.10;;;;;;;;;;107570;1250;22534;-79
2023/04/11 05:38:32;;;;;;;20.30;10.90;;;;;;;;;;107739;1252;25466;-79
2023/04/11 05:40:58;;;;;;;22.40;11.70;;;;;;;;;;107688;1252;25295;-79
2023/04/11 05:43:25;;;;;;;28.20;12.80;;;;;;;;;;107884;1250;22528;-80
2023/04/11 05:45:51;;;;;;;25.30;13.40;;;;;;;;;;107623;1252;24180;-78
2023/04/11 05:48:21;;;;;;;36.90;17.00;;;;;;;;;;107864;1250;23389;-79
2023/04/11 05:50:48;;;;;;;20.60;11.10;;;;;;;;;;107643;1250;22587;-79
2023/04/11 05:53:15;;;;;;;23.20;12.60;;;;;;;;;;107939;1251;22528;-80
2023/04/11 05:55:41;;;;;;;21.70;12.60;;;;;;;;;;107829;1252;25255;-78
2023/04/11 05:58:08;;;;;;;16.60;10.50;;;;;;;;;;107577;1250;22621;-79
2023/04/11 06:00:36;;;;;;;21.20;11.10;;;;;;;;;;108202;1252;22589;-80
2023/04/11 06:03:04;;;;;;;22.40;12.80;;;;;;;;;;107850;1251;23173;-80
2023/04/11 06:05:30;;;;;;;19.30;13.10;;;;;;;;;;108283;1252;23203;-79
2023/04/11 06:07:57;;;;;;;20.00;12.70;;;;;;;;;;107917;1252;22556;-80
2023/04/11 06:10:24;;;;;;;19.30;13.30;;;;;;;;;;107945;1248;25300;-79
2023/04/11 06:12:50;;;;;;;20.20;13.10;;;;;;;;;;107844;1252;22707;-80
2023/04/11 06:15:17;;;;;;;19.30;12.60;;;;;;;;;;107996;1250;22523;-80
2023/04/11 06:17:44;;;;;;;21.10;14.20;;;;;;;;;;108108;1250;26540;-77
2023/04/11 06:20:10;;;;;;;21.10;13.60;;;;;;;;;;107993;1252;22545;-79
2023/04/11 06:22:38;;;;;;;22.10;13.30;;;;;;;;;;107774;1250;22619;-78
2023/04/11 06:25:05;;;;;;;18.60;13.00;;;;;;;;;;107778;1250;22515;-78
2023/04/11 06:27:32;;;;;;;21.10;13.40;;;;;;;;;;107755;1252;26484;-78
2023/04/11 06:29:58;;;;;;;19.80;13.80;;;;;;;;;;108091;1252;25294;-79
2023/04/11 06:32:24;;;;;;;21.50;12.10;;;;;;;;;;108212;1248;24245;-78
2023/04/11 06:34:51;;;;;;;19.50;12.10;;;;;;;;;;108217;1250;22688;-79
2023/04/11 06:37:17;;;;;;;17.40;11.30;;;;;;;;;;108223;1250;26133;-80
2023/04/11 06:39:44;;;;;;;16.50;11.10;;;;;;;;;;108122;1248;22536;-78
2023/04/11 06:42:10;;;;;;;13.90;9.70;;;;;;;;;;108156;1250;23097;-79
2023/04/11 06:44:36;;;;;;;16.20;10.30;;;;;;;;;;107780;1250;22973;-79
2023/04/11 06:47:03;;;;;;;14.40;10.10;;;;;;;;;;107754;1251;22900;-78
2023/04/11 06:49:30;;;;;;;19.20;11.10;;;;;;;;;;110159;1249;22641;-80
2023/04/11 06:51:58;;;;;;;19.30;11.20;;;;;;;;;;108164;1250;25358;-79
2023/04/11 06:54:24;;;;;;;14.70;9.60;;;;;;;;;;108326;1248;24241;-78
2023/04/11 06:56:51;;;;;;;11.50;8.30;;;;;;;;;;107795;1251;22522;-80
2023/04/11 06:59:20;;;;;;;25.30;15.60;;;;;;;;;;107917;1252;22522;-78
2023/04/11 07:01:47;;;;;;;29.20;17.10;;;;;;;;;;107889;1252;22522;-80
2023/04/11 07:04:13;;;;;;;137.90;72.40;;;;;;;;;;108455;1252;25210;-78
2023/04/11 07:06:40;;;;;;;55.40;29.00;;;;;;;;;;107839;1252;22549;-80
2023/04/11 07:09:06;;;;;;;53.20;27.50;;;;;;;;;;108072;1250;23338;-78
2023/04/11 07:11:32;;;;;;;98.30;56.40;;;;;;;;;;107858;1250;23264;-79
2023/04/11 07:13:59;;;;;;;32.70;26.40;;;;;;;;;;108028;1250;22555;-79
2023/04/11 07:16:25;;;;;;;19.10;14.60;;;;;;;;;;108074;1250;23829;-79
2023/04/11 07:18:52;;;;;;;13.00;8.80;;;;;;;;;;107782;1250;23004;-78
2023/04/11 07:21:19;;;;;;;10.10;8.30;;;;;;;;;;107751;1251;24204;-78
2023/04/11 07:23:45;;;;;;;13.40;8.00;;;;;;;;;;108470;1248;25232;-78
2023/04/11 07:26:12;;;;;;;12.20;8.40;;;;;;;;;;108072;1252;22463;-80
2023/04/11 07:28:39;;;;;;;10.40;8.20;;;;;;;;;;107847;1250;25364;-80
2023/04/11 07:31:08;;;;;;;16.20;9.80;;;;;;;;;;107822;1250;22522;-80
2023/04/11 07:33:38;;;;;;;10.50;8.00;;;;;;;;;;107880;1250;22534;-80
2023/04/11 07:36:05;;;;;;;11.90;7.70;;;;;;;;;;108126;1251;24213;-80
2023/04/11 07:38:32;;;;;;;11.50;7.50;;;;;;;;;;107744;1248;23243;-78
2023/04/11 07:40:59;;;;;;;17.30;10.70;;;;;;;;;;107929;1251;22538;-78
2023/04/11 07:43:26;;;;;;;15.50;10.40;;;;;;;;;;108276;1252;22592;-80
2023/04/11 07:45:52;;;;;;;10.80;7.10;;;;;;;;;;108126;1251;22965;-79
2023/04/11 07:48:22;;;;;;;11.60;7.40;;;;;;;;;;107767;1248;25481;-78
2023/04/11 07:50:48;;;;;;;9.00;6.90;;;;;;;;;;107982;1252;22534;-79
2023/04/11 07:53:15;;;;;;;14.60;10.20;;;;;;;;;;109264;1248;24250;-79
2023/04/11 07:55:41;;;;;;;18.60;13.50;;;;;;;;;;108992;1253;22537;-80
2023/04/11 07:58:08;;;;;;;59.70;47.80;;;;;;;;;;108964;1250;23224;-79
2023/04/11 08:00:34;;;;;;;15.10;8.20;;;;;;;;;;109138;1251;23023;-79
2023/04/11 08:03:04;;;;;;;15.90;9.20;;;;;;;;;;109071;1252;22596;-80
2023/04/11 08:05:31;;;;;;;13.20;7.70;;;;;;;;;;108637;1251;23279;-80
2023/04/11 08:07:57;;;;;;;18.30;12.00;;;;;;;;;;108497;1254;24260;-79
2023/04/11 08:10:23;;;;;;;16.50;8.20;;;;;;;;;;108531;1249;22517;-79
2023/04/11 08:12:50;;;;;;;9.00;7.20;;;;;;;;;;109022;1251;25306;-82
2023/04/11 08:15:16;;;;;;;13.50;6.70;;;;;;;;;;108983;1253;23923;-79
2023/04/11 08:17:44;;;;;;;9.50;6.30;;;;;;;;;;108420;1250;22534;-81
2023/04/11 08:20:11;;;;;;;7.80;5.90;;;;;;;;;;108557;1250;25361;-82
2023/04/11 08:22:46;;;;;;;13.80;9.70;;;;;;;;;;108687;1253;27464;-81
2023/04/11 08:25:12;;;;;;;9.40;6.20;;;;;;;;;;108457;1249;22540;-81
2023/04/11 08:27:39;;;;;;;16.80;10.40;;;;;;;;;;108829;1250;23016;-79
2023/04/11 08:30:07;;;;;;;15.40;7.70;;;;;;;;;;109079;1248;22601;-80
2023/04/11 08:32:34;;;;;;;10.70;6.60;;;;;;;;;;108872;1251;22655;-82
2023/04/11 08:35:00;;;;;;;5.90;4.80;;;;;;;;;;109028;1250;22559;-79
2023/04/11 08:37:26;;;;;;;8.70;6.50;;;;;;;;;;109067;1248;22607;-79
2023/04/11 08:39:53;;;;;;;11.00;8.20;;;;;;;;;;109104;1248;22505;-82
2023/04/11 08:42:22;;;;;;;10.80;6.10;;;;;;;;;;108368;1250;23716;-82
2023/04/11 08:44:53;;;;;;;16.20;10.30;;;;;;;;;;108685;1251;25360;-81
2023/04/11 08:47:19;;;;;;;12.30;7.10;;;;;;;;;;108887;1251;25349;-82
2023/04/11 08:49:46;;;;;;;9.30;6.70;;;;;;;;;;108889;1251;24396;-82
2023/04/11 08:52:12;;;;;;;7.00;5.50;;;;;;;;;;108605;1251;23111;-82
2023/04/11 08:54:39;;;;;;;9.30;6.40;;;;;;;;;;108228;1252;22566;-82
2023/04/11 08:57:05;;;;;;;9.60;7.20;;;;;;;;;;108173;1252;24209;-79
2023/04/11 08:59:32;;;;;;;7.50;5.90;;;;;;;;;;108236;1254;22541;-81
2023/04/11 09:02:05;;;;;;;41.80;29.00;;;;;;;;;;108543;1252;22523;-81
2023/04/11 09:04:38;;;;;;;26.90;12.90;;;;;;;;;;109034;1249;23494;-78
2023/04/11 09:07:04;;;;;;;28.50;18.80;;;;;;;;;;109085;1249;22621;-82
2023/04/11 09:09:31;;;;;;;9.70;6.50;;;;;;;;;;108762;1249;22522;-78
2023/04/11 09:11:57;;;;;;;9.00;6.20;;;;;;;;;;108229;1252;22561;-79
2023/04/11 09:14:25;;;;;;;8.40;4.60;;;;;;;;;;107936;1254;22531;-81
2023/04/11 09:16:55;;;;;;;9.20;4.60;;;;;;;;;;107817;1253;23125;-78
2023/04/11 09:19:22;;;;;;;8.30;5.20;;;;;;;;;;107589;1253;22550;-81
2023/04/11 09:21:51;;;;;;;7.80;3.60;;;;;;;;;;108099;1248;22536;-79
2023/04/11 09:24:18;;;;;;;11.80;3.70;;;;;;;;;;108160;1250;26598;-80
2023/04/11 09:26:45;;;;;;;9.80;3.30;;;;;;;;;;110609;1248;22714;-82
2023/04/11 09:29:13;;;;;;;20.70;17.70;;;;;;;;;;107826;1251;25495;-79
2023/04/11 09:31:43;;;;;;;8.90;7.10;;;;;;;;;;108360;1251;22605;-78
2023/04/11 09:34:10;;;;;;;11.50;5.60;;;;;;;;;;108679;1249;22519;-81
2023/04/11 09:36:37;;;;;;;10.50;3.90;;;;;;;;;;109153;1248;22551;-80
2023/04/11 09:39:17;;;;;;;7.40;3.40;;;;;;;;;;108645;1248;22621;-79
2023/04/11 09:41:43;;;;;;;7.80;4.90;;;;;;;;;;108203;1247;22533;-79
2023/04/11 09:44:09;;;;;;;9.10;4.10;;;;;;;;;;108071;1248;22542;-79
2023/04/11 09:46:36;;;;;;;12.00;4.60;;;;;;;;;;108016;1251;22539;-78
2023/04/11 09:49:02;;;;;;;8.30;3.80;;;;;;;;;;108266;1248;22534;-79
2023/04/11 09:51:29;;;;;;;6.20;3.60;;;;;;;;;;107963;1251;22523;-78
2023/04/11 09:53:56;;;;;;;4.50;3.00;;;;;;;;;;108541;1248;22643;-78
2023/04/11 09:56:25;;;;;;;9.20;3.70;;;;;;;;;;108341;1251;22552;-79
2023/04/11 09:58:51;;;;;;;8.50;3.90;;;;;;;;;;108356;1250;24202;-79
2023/04/11 10:01:18;;;;;;;6.10;3.60;;;;;;;;;;109849;1252;22552;-78
2023/04/11 10:03:49;;;;;;;6.40;3.90;;;;;;;;;;107919;1248;25363;-80
2023/04/11 10:06:19;;;;;;;7.90;4.30;;;;;;;;;;108131;1251;22545;-79
2023/04/11 10:08:46;;;;;;;10.70;5.20;;;;;;;;;;108085;1253;22550;-79
2023/04/11 10:11:13;;;;;;;7.30;3.60;;;;;;;;;;108095;1248;22532;-77
2023/04/11 10:13:39;;;;;;;11.50;4.20;;;;;;;;;;108118;1251;25300;-79
2023/04/11 10:16:09;;;;;;;5.60;2.90;;;;;;;;;;109098;1248;25424;-78
2023/04/11 10:18:36;;;;;;;10.20;3.30;;;;;;;;;;107992;1247;24361;-78
2023/04/11 10:21:02;;;;;;;4.70;3.70;;;;;;;;;;108181;1253;26626;-78
2023/04/11 10:23:29;;;;;;;6.90;4.20;;;;;;;;;;108271;1248;24271;-79
2023/04/11 10:25:59;;;;;;;8.20;4.40;;;;;;;;;;108286;1247;22640;-76
2023/04/11 10:28:31;;;;;;;5.40;4.20;;;;;;;;;;107955;1247;25220;-79
2023/04/11 10:31:02;;;;;;;5.50;3.50;;;;;;;;;;108097;1248;24157;-77
2023/04/11 10:33:29;;;;;;;5.30;3.70;;;;;;;;;;108330;1247;25070;-76
2023/04/11 10:35:58;;;;;;;6.00;3.60;;;;;;;;;;108306;1247;25377;-77
2023/04/11 10:38:44;;;;;;;5.90;4.20;;;;;;;;;;108105;1248;22634;-75
2023/04/11 10:41:14;;;;;;;9.60;4.60;;;;;;;;;;108040;1248;24369;-76
2023/04/11 10:43:41;;;;;;;10.60;4.30;;;;;;;;;;108348;1247;25481;-82
2023/04/11 10:46:23;;;;;;;11.60;7.40;;;;;;;;;;108278;1248;22564;-79
2023/04/11 10:48:56;;;;;;;11.10;6.20;;;;;;;;;;108013;1253;22579;-79
2023/04/11 10:51:24;;;;;;;7.20;4.70;;;;;;;;;;107939;1248;22522;-79
2023/04/11 10:53:51;;;;;;;13.70;7.40;;;;;;;;;;107938;1247;23396;-78
2023/04/11 10:56:40;;;;;;;7.50;4.50;;;;;;;;;;107967;1248;22529;-79
2023/04/11 10:59:27;;;;;;;4.50;3.50;;;;;;;;;;107860;1248;24425;-78
2023/04/11 11:01:53;;;;;;;7.20;3.70;;;;;;;;;;108412;1247;22650;-79
2023/04/11 11:04:20;;;;;;;7.60;4.10;;;;;;;;;;108055;1251;22593;-79
2023/04/11 11:06:46;;;;;;;7.70;4.20;;;;;;;;;;108240;1251;22547;-78
2023/04/11 11:09:20;;;;;;;6.20;4.30;;;;;;;;;;108256;1248;25491;-78
2023/04/11 11:12:03;;;;;;;6.80;4.40;;;;;;;;;;110953;1251;22484;-79
2023/04/11 11:14:29;;;;;;;11.90;4.50;;;;;;;;;;108770;1251;22577;-79
2023/04/11 11:16:56;;;;;;;6.90;4.40;;;;;;;;;;107858;1248;26357;-79
2023/04/11 11:19:22;;;;;;;9.20;4.80;;;;;;;;;;107896;1248;22721;-79
2023/04/11 11:21:50;;;;;;;6.90;5.10;;;;;;;;;;108022;1251;22563;-78
2023/04/11 11:24:22;;;;;;;5.10;4.20;;;;;;;;;;108032;1251;23972;-80
2023/04/11 11:26:49;;;;;;;8.90;3.60;;;;;;;;;;108779;1247;22787;-79
2023/04/11 11:29:16;;;;;;;4.40;3.70;;;;;;;;;;109154;1250;22566;-80
2023/04/11 11:31:44;;;;;;;5.20;3.80;;;;;;;;;;109028;1249;22820;-79
2023/04/11 11:34:11;;;;;;;9.10;4.70;;;;;;;;;;110734;1248;22494;-80
2023/04/11 11:36:38;;;;;;;5.00;3.80;;;;;;;;;;110837;1248;22428;-79
2023/04/11 11:39:05;;;;;;;9.40;4.90;;;;;;;;;;108907;1250;22984;-78
2023/04/11 11:41:33;;;;;;;6.70;4.50;;;;;;;;;;107832;1250;24456;-78
2023/04/11 11:44:00;;;;;;;5.40;3.90;;;;;;;;;;108003;1250;23057;-78
2023/04/11 11:46:29;;;;;;;8.30;3.80;;;;;;;;;;107868;1250;23925;-80
2023/04/11 11:49:02;;;;;;;20.00;11.70;;;;;;;;;;107698;1251;25213;-80
2023/04/11 11:51:38;;;;;;;6.40;4.40;;;;;;;;;;107591;1252;25501;-80
2023/04/11 11:54:07;;;;;;;7.30;4.70;;;;;;;;;;107869;1251;25503;-80
2023/04/11 11:56:33;;;;;;;;;;;;;;;;;;108532;1249;22504;-79
2023/04/11 11:59:00;;;;;;;10.20;5.70;;;;;;;;;;108268;1251;23892;-79
2023/04/11 12:01:26;;;;;;;7.10;5.10;;;;;;;;;;108298;1250;22538;-79
2023/04/11 12:03:53;;;;;;;6.90;5.40;;;;;;;;;;108285;1248;22644;-80
2023/04/11 12:06:19;;;;;;;13.50;5.20;;;;;;;;;;108344;1248;24369;-80
2023/04/11 12:08:52;;;;;;;6.60;4.50;;;;;;;;;;108423;1248;25910;-80
2023/04/11 12:11:18;;;;;;;7.80;4.50;;;;;;;;;;108259;1251;25341;-79
2023/04/11 12:13:50;;;;;;;6.90;4.60;;;;;;;;;;108172;1249;25648;-79
2023/04/11 12:16:16;;;;;;;6.40;4.20;;;;;;;;;;107928;1251;22577;-79
2023/04/11 12:18:43;;;;;;;7.00;4.00;;;;;;;;;;108001;1251;22538;-79
2023/04/11 12:21:09;;;;;;;4.90;3.70;;;;;;;;;;108042;1249;23281;-79
2023/04/11 12:23:36;;;;;;;5.50;4.50;;;;;;;;;;108051;1250;24234;-79
2023/04/11 12:26:02;;;;;;;6.30;4.20;;;;;;;;;;107674;1249;23898;-79
2023/04/11 12:28:28;;;;;;;5.90;4.40;;;;;;;;;;107770;1251;22529;-78
2023/04/11 12:30:55;;;;;;;5.30;3.30;;;;;;;;;;107599;1252;22960;-79
2023/04/11 12:33:22;;;;;;;6.70;3.60;;;;;;;;;;107942;1250;23030;-79
2023/04/11 12:35:48;;;;;;;7.10;3.80;;;;;;;;;;107781;1250;23264;-79
2023/04/11 12:38:15;;;;;;;5.80;4.70;;;;;;;;;;107977;1254;22497;-79
2023/04/11 12:40:41;;;;;;;8.10;4.90;;;;;;;;;;108115;1248;22543;-80
2023/04/11 12:43:07;;;;;;;5.50;3.40;;;;;;;;;;108157;1251;25313;-80
2023/04/11 12:45:34;;;;;;;7.80;3.90;;;;;;;;;;107721;1251;22885;-80
2023/04/11 12:48:00;;;;;;;6.10;3.80;;;;;;;;;;107951;1250;22637;-80
2023/04/11 12:50:27;;;;;;;4.70;3.70;;;;;;;;;;108028;1248;22613;-80
2023/04/11 12:52:53;;;;;;;5.00;4.00;;;;;;;;;;109001;1248;22271;-80
2023/04/11 12:55:20;;;;;;;4.70;4.00;;;;;;;;;;108785;1248;23301;-81
2023/04/11 12:57:46;;;;;;;7.90;3.80;;;;;;;;;;108490;1250;25336;-80
2023/04/11 13:00:13;;;;;;;9.20;7.00;;;;;;;;;;107842;1248;22699;-80
2023/04/11 13:02:40;;;;;;;5.40;3.00;;;;;;;;;;107682;1250;22527;-80
2023/04/11 13:05:08;;;;;;;6.00;3.00;;;;;;;;;;107659;1250;24116;-79
2023/04/11 13:07:34;;;;;;;3.50;2.90;;;;;;;;;;108391;1250;22601;-80
2023/04/11 13:10:02;;;;;;;5.10;3.90;;;;;;;;;;108228;1250;25308;-79
2023/04/11 13:12:29;;;;;;;6.30;3.70;;;;;;;;;;108874;1250;25387;-80
2023/04/11 13:14:56;;;;;;;8.50;4.50;;;;;;;;;;108411;1249;27077;-79
2023/04/11 13:17:22;;;;;;;8.30;4.70;;;;;;;;;;108212;1250;22909;-80
2023/04/11 13:19:48;;;;;;;9.10;4.00;;;;;;;;;;107642;1251;24337;-80
2023/04/11 13:22:15;;;;;;;13.90;4.00;;;;;;;;;;107958;1249;22602;-80
2023/04/11 13:24:41;;;;;;;14.50;5.20;;;;;;;;;;109054;1250;22540;-80
2023/04/11 13:27:07;;;;;;;5.90;3.60;;;;;;;;;;108431;1250;22564;-80
2023/04/11 13:29:33;;;;;;;8.80;5.50;;;;;;;;;;108082;1252;24188;-80
2023/04/11 13:32:00;;;;;;;7.20;4.60;;;;;;;;;;108261;1249;23489;-80
2023/04/11 13:34:26;;;;;;;7.20;4.40;;;;;;;;;;108856;1248;23273;-80
2023/04/11 13:36:53;;;;;;;9.00;5.20;;;;;;;;;;108495;1250;22625;-80
2023/04/11 13:39:19;;;;;;;6.10;4.30;;;;;;;;;;108268;1250;22647;-80
2023/04/11 13:41:45;;;;;;;9.10;6.60;;;;;;;;;;108343;1249;25469;-80
2023/04/11 13:44:12;;;;;;;8.60;4.90;;;;;;;;;;108208;1248;23487;-80
2023/04/11 13:46:38;;;;;;;7.70;4.60;;;;;;;;;;108431;1247;22520;-80
2023/04/11 13:49:05;;;;;;;6.90;4.90;;;;;;;;;;108849;1248;22542;-81
2023/04/11 13:51:32;;;;;;;5.30;3.70;;;;;;;;;;108922;1247;22571;-80
2023/04/11 13:53:59;;;;;;;4.60;3.50;;;;;;;;;;109150;1247;23302;-81
2023/04/11 13:56:26;;;;;;;4.60;3.30;;;;;;;;;;108702;1250;22541;-80
2023/04/11 13:58:52;;;;;;;5.50;3.10;;;;;;;;;;108400;1247;153143;-80
2023/04/11 14:01:18;;;;;;;6.10;4.70;;;;;;;;;;108360;1247;25354;-80
2023/04/11 14:03:45;;;;;;;5.80;3.60;;;;;;;;;;108381;1248;22531;-82
2023/04/11 14:06:12;;;;;;;7.10;3.20;;;;;;;;;;108225;1250;22590;-80
2023/04/11 14:08:39;;;;;;;5.60;4.30;;;;;;;;;;108371;1250;22524;-80
2023/04/11 14:11:05;;;;;;;6.20;4.70;;;;;;;;;;109584;1247;25607;-81
2023/04/11 14:13:32;;;;;;;6.40;4.70;;;;;;;;;;108147;1248;22529;-80
2023/04/11 14:15:58;;;;;;;11.50;8.80;;;;;;;;;;108311;1247;27536;-80